createdAt,value
2023-01-21T00:00:45.798Z,38.40
2023-01-21T00:03:13.096Z,37.20
2023-01-21T00:05:39.950Z,36.80
2023-01-21T00:08:06.702Z,38.60
2023-01-21T00:10:34.069Z,36.80
2023-01-21T00:13:00.962Z,35.70
2023-01-21T00:15:30.559Z,37.93
2023-01-21T00:17:57.346Z,41.63
2023-01-21T00:20:24.083Z,38.40
2023-01-21T00:22:53.943Z,40.53
2023-01-21T00:25:21.309Z,39.23
2023-01-21T00:27:48.528Z,37.43
2023-01-21T00:30:15.819Z,38.30
2023-01-21T00:32:42.787Z,38.27
2023-01-21T00:35:09.847Z,48.40
2023-01-21T00:37:36.772Z,38.13
2023-01-21T00:40:05.589Z,37.50
2023-01-21T00:42:32.641Z,38.03
2023-01-21T00:45:00.073Z,38.50
2023-01-21T00:47:26.946Z,43.80
2023-01-21T00:49:53.682Z,39.40
2023-01-21T00:52:20.429Z,44.43
2023-01-21T00:54:47.197Z,39.50
2023-01-21T00:57:13.999Z,36.97
2023-01-21T00:59:41.055Z,39.37
2023-01-21T01:02:08.732Z,37.43
2023-01-21T01:04:35.681Z,34.33
2023-01-21T01:07:02.533Z,47.87
2023-01-21T01:09:29.484Z,33.77
2023-01-21T01:11:56.335Z,38.90
2023-01-21T01:14:24.016Z,39.47
2023-01-21T01:16:50.971Z,39.20
2023-01-21T01:19:18.024Z,33.20
2023-01-21T01:21:44.887Z,37.73
2023-01-21T01:24:12.040Z,36.27
2023-01-21T01:26:41.944Z,38.97
2023-01-21T01:29:13.422Z,36.90
2023-01-21T01:31:40.372Z,37.20
2023-01-21T01:34:07.369Z,35.60
2023-01-21T01:36:34.271Z,34.33
2023-01-21T01:39:01.575Z,41.83
2023-01-21T01:41:30.307Z,33.60
2023-01-21T01:44:00.878Z,31.00
2023-01-21T01:46:31.120Z,34.73
2023-01-21T01:49:01.939Z,41.27
2023-01-21T01:51:56.308Z,35.93
2023-01-21T01:54:33.281Z,30.90
2023-01-21T01:57:03.304Z,37.07
2023-01-21T01:59:31.775Z,41.73
2023-01-21T02:02:06.617Z,35.13
2023-01-21T02:04:38.656Z,37.97
2023-01-21T02:07:05.592Z,40.83
2023-01-21T02:09:32.416Z,36.30
2023-01-21T02:12:01.407Z,45.53
2023-01-21T02:14:29.802Z,49.87
2023-01-21T02:17:10.483Z,30.93
2023-01-21T02:20:03.217Z,36.50
2023-01-21T02:22:45.468Z,38.83
2023-01-21T02:25:15.352Z,41.37
2023-01-21T02:28:19.333Z,41.30
2023-01-21T02:33:45.290Z,37.47
2023-01-21T02:36:26.972Z,32.83
2023-01-21T02:39:21.602Z,34.73
2023-01-21T02:41:51.419Z,38.77
2023-01-21T02:44:40.861Z,40.00
2023-01-21T02:47:10.383Z,43.27
2023-01-21T02:50:05.941Z,40.20
2023-01-21T02:52:32.729Z,44.23
2023-01-21T02:55:02.533Z,33.17
2023-01-21T02:57:47.822Z,38.90
2023-01-21T03:00:20.227Z,38.07
2023-01-21T03:03:08.810Z,36.93
2023-01-21T03:06:26.863Z,38.77
2023-01-21T03:09:02.014Z,48.40
2023-01-21T03:11:29.173Z,44.53
2023-01-21T03:14:29.612Z,41.63
2023-01-21T03:17:08.673Z,43.70
2023-01-21T03:19:37.505Z,38.17
2023-01-21T03:22:11.218Z,40.43
2023-01-21T03:24:41.406Z,47.57
2023-01-21T03:27:10.117Z,41.77
2023-01-21T03:29:40.093Z,47.83
2023-01-21T03:32:10.705Z,43.53
2023-01-21T03:34:42.128Z,44.43
2023-01-21T03:37:41.993Z,41.30
2023-01-21T03:40:16.356Z,47.53
2023-01-21T03:42:44.719Z,47.10
2023-01-21T03:45:12.534Z,37.37
2023-01-21T03:47:42.256Z,45.40
2023-01-21T03:50:20.014Z,47.17
2023-01-21T03:52:47.129Z,58.60
2023-01-21T03:55:16.213Z,40.47
2023-01-21T03:57:43.054Z,49.50
2023-01-21T04:00:10.903Z,41.73
2023-01-21T04:02:37.753Z,49.07
2023-01-21T04:05:04.993Z,45.37
2023-01-21T04:07:31.781Z,45.47
2023-01-21T04:09:58.495Z,45.90
2023-01-21T04:12:25.276Z,52.80
2023-01-21T04:14:52.052Z,52.90
2023-01-21T04:17:18.768Z,53.50
2023-01-21T04:19:45.525Z,48.50
2023-01-21T04:22:12.463Z,46.23
2023-01-21T04:24:39.268Z,49.70
2023-01-21T04:27:06.041Z,54.07
2023-01-21T04:29:32.765Z,47.83
2023-01-21T04:31:59.548Z,43.13
2023-01-21T04:34:26.383Z,50.37
2023-01-21T04:36:53.154Z,47.33
2023-01-21T04:39:19.917Z,59.23
2023-01-21T04:41:46.698Z,58.93
2023-01-21T04:44:13.529Z,62.80
2023-01-21T04:46:40.307Z,68.00
2023-01-21T04:49:07.089Z,64.53
2023-01-21T04:51:33.838Z,48.40
2023-01-21T04:54:00.663Z,57.63
2023-01-21T04:56:27.687Z,51.97
2023-01-21T04:58:55.745Z,54.80
2023-01-21T05:01:22.534Z,56.00
2023-01-21T05:03:49.342Z,58.90
2023-01-21T05:06:16.098Z,53.83
2023-01-21T05:08:43.142Z,66.20
2023-01-21T05:11:12.139Z,48.87
2023-01-21T05:13:38.844Z,55.77
2023-01-21T05:16:08.570Z,56.17
2023-01-21T05:18:38.840Z,51.30
2023-01-21T05:21:06.622Z,65.33
2023-01-21T05:23:33.461Z,61.53
2023-01-21T05:26:00.174Z,56.50
2023-01-21T05:28:26.949Z,54.93
2023-01-21T05:30:53.745Z,56.83
2023-01-21T05:33:26.218Z,59.00
2023-01-21T05:35:53.145Z,66.10
2023-01-21T05:38:19.935Z,53.13
2023-01-21T05:40:46.716Z,55.97
2023-01-21T05:43:13.533Z,58.57
2023-01-21T05:45:40.421Z,57.03
2023-01-21T05:48:07.178Z,73.00
2023-01-21T05:50:33.900Z,50.97
2023-01-21T05:53:00.651Z,66.03
2023-01-21T05:55:27.419Z,51.07
2023-01-21T05:57:54.138Z,58.73
2023-01-21T06:00:21.264Z,55.97
2023-01-21T06:02:48.057Z,55.63
2023-01-21T06:05:14.866Z,57.87
2023-01-21T06:07:41.683Z,54.77
2023-01-21T06:10:09.074Z,52.00
2023-01-21T06:12:35.952Z,54.43
2023-01-21T06:15:02.745Z,48.80
2023-01-21T06:17:29.560Z,53.83
2023-01-21T06:19:56.268Z,45.30
2023-01-21T06:22:23.006Z,58.30
2023-01-21T06:24:49.733Z,60.20
2023-01-21T06:27:16.509Z,53.23
2023-01-21T06:29:44.011Z,48.57
2023-01-21T06:32:10.871Z,43.10
2023-01-21T06:34:37.714Z,52.83
2023-01-21T06:37:04.546Z,56.40
2023-01-21T06:39:31.308Z,51.03
2023-01-21T06:41:58.035Z,44.07
2023-01-21T06:44:24.886Z,55.37
2023-01-21T06:47:00.804Z,52.90
2023-01-21T06:49:27.921Z,52.37
2023-01-21T06:51:54.657Z,61.03
2023-01-21T06:54:21.427Z,63.30
2023-01-21T06:56:48.164Z,61.87
2023-01-21T06:59:14.860Z,59.80
2023-01-21T07:01:41.617Z,58.90
2023-01-21T07:04:08.377Z,52.57
2023-01-21T07:06:35.168Z,51.67
2023-01-21T07:09:03.808Z,59.93
2023-01-21T07:11:31.391Z,66.73
2023-01-21T07:13:58.332Z,63.03
2023-01-21T07:16:25.143Z,72.60
2023-01-21T07:18:52.257Z,56.10
2023-01-21T07:21:19.259Z,59.50
2023-01-21T07:23:46.786Z,54.83
2023-01-21T07:26:13.532Z,52.70
2023-01-21T07:28:40.309Z,54.03
2023-01-21T07:31:07.217Z,47.17
2023-01-21T07:33:34.162Z,56.40
2023-01-21T07:36:01.044Z,54.07
2023-01-21T07:38:27.896Z,54.67
2023-01-21T07:40:54.652Z,61.50
2023-01-21T07:43:21.412Z,54.47
2023-01-21T07:45:48.448Z,62.53
2023-01-21T07:48:15.373Z,67.50
2023-01-21T07:50:42.154Z,65.47
2023-01-21T07:53:11.325Z,64.43
2023-01-21T07:55:38.121Z,68.00
2023-01-21T07:58:07.931Z,60.13
2023-01-21T08:00:34.629Z,64.27
2023-01-21T08:05:41.528Z,73.57
2023-01-21T08:08:08.304Z,66.27
2023-01-21T08:10:35.053Z,60.50
2023-01-21T08:13:02.122Z,68.20
2023-01-21T08:15:28.935Z,70.53
2023-01-21T08:17:56.596Z,63.77
2023-01-21T08:20:23.915Z,70.07
2023-01-21T08:22:53.700Z,61.30
2023-01-21T08:25:20.438Z,68.00
2023-01-21T08:27:47.179Z,54.33
2023-01-21T08:30:14.336Z,58.00
2023-01-21T08:32:41.146Z,56.30
2023-01-21T08:35:08.642Z,59.93
2023-01-21T08:37:35.451Z,63.57
2023-01-21T08:40:05.793Z,62.83
2023-01-21T08:42:32.518Z,66.83
2023-01-21T08:44:59.288Z,66.80
2023-01-21T08:47:25.993Z,62.63
2023-01-21T08:49:52.705Z,59.77
2023-01-21T08:52:20.922Z,57.80
2023-01-21T08:54:50.430Z,53.17
2023-01-21T08:57:17.478Z,61.03
2023-01-21T08:59:44.177Z,59.80
2023-01-21T09:02:14.020Z,59.67
2023-01-21T09:04:40.812Z,61.80
2023-01-21T09:07:07.553Z,68.27
2023-01-21T09:09:34.317Z,59.07
2023-01-21T09:12:01.284Z,66.30
2023-01-21T09:14:29.065Z,67.67
2023-01-21T09:16:56.376Z,58.50
2023-01-21T09:19:24.019Z,71.87
2023-01-21T09:21:52.524Z,65.90
2023-01-21T09:24:19.251Z,75.00
2023-01-21T09:26:46.186Z,69.83
2023-01-21T09:29:13.145Z,75.77
2023-01-21T09:31:39.980Z,82.27
2023-01-21T09:34:06.894Z,71.87
2023-01-21T09:36:35.325Z,66.37
2023-01-21T09:39:02.589Z,70.57
2023-01-21T09:41:52.341Z,75.77
2023-01-21T09:44:25.770Z,71.57
2023-01-21T09:47:02.515Z,66.53
2023-01-21T09:49:54.034Z,74.03
2023-01-21T09:52:41.874Z,68.83
2023-01-21T09:55:18.891Z,60.57
2023-01-21T09:57:48.616Z,73.97
2023-01-21T10:00:36.910Z,69.13
2023-01-21T10:05:52.675Z,64.37
2023-01-21T10:08:33.145Z,66.50
2023-01-21T10:11:32.001Z,67.00
2023-01-21T10:14:29.216Z,61.90
2023-01-21T10:17:01.974Z,56.50
2023-01-21T10:19:54.660Z,56.23
2023-01-21T10:22:27.000Z,57.97
2023-01-21T10:25:03.004Z,54.63
2023-01-21T10:27:35.343Z,61.50
2023-01-21T10:30:34.673Z,55.13
2023-01-21T10:33:01.456Z,56.77
2023-01-21T10:35:56.377Z,56.20
2023-01-21T10:38:57.979Z,56.03
2023-01-21T10:41:53.552Z,46.43
2023-01-21T10:44:44.205Z,51.63
2023-01-21T10:47:39.615Z,56.20
2023-01-21T10:50:28.655Z,52.93
2023-01-21T10:53:06.869Z,57.10
2023-01-21T10:55:54.810Z,60.10
2023-01-21T10:58:46.314Z,58.70
2023-01-21T11:01:20.824Z,51.43
2023-01-21T11:03:57.143Z,49.43
2023-01-21T11:06:25.207Z,53.77
2023-01-21T11:08:57.215Z,51.63
2023-01-21T11:11:32.721Z,44.13
2023-01-21T11:14:00.775Z,46.23
2023-01-21T11:16:36.440Z,51.33
2023-01-21T11:19:05.818Z,42.83
2023-01-21T11:21:33.414Z,47.83
2023-01-21T11:24:18.462Z,48.80
2023-01-21T11:26:55.052Z,35.70
2023-01-21T11:29:23.439Z,47.97
2023-01-21T11:32:01.879Z,43.43
2023-01-21T11:34:29.271Z,46.27
2023-01-21T11:37:01.866Z,45.67
2023-01-21T11:39:31.988Z,49.17
2023-01-21T11:42:08.122Z,47.67
2023-01-21T11:44:53.289Z,43.60
2023-01-21T11:47:38.615Z,51.70
2023-01-21T11:50:30.396Z,46.13
2023-01-21T11:53:19.203Z,43.03
2023-01-21T11:55:54.295Z,37.63
2023-01-21T11:58:31.704Z,46.20
2023-01-21T12:01:01.577Z,46.27
2023-01-21T12:03:42.713Z,41.67
2023-01-21T12:06:17.164Z,48.07
2023-01-21T12:08:48.467Z,38.60
2023-01-21T12:11:20.873Z,39.97
2023-01-21T12:13:52.015Z,44.37
2023-01-21T12:16:24.846Z,39.47
2023-01-21T12:19:25.650Z,42.60
2023-01-21T12:21:55.493Z,45.73
2023-01-21T12:24:51.035Z,37.97
2023-01-21T12:27:35.751Z,43.17
2023-01-21T12:30:14.304Z,47.60
2023-01-21T12:32:45.927Z,39.30
2023-01-21T12:35:28.874Z,41.70
2023-01-21T12:38:16.199Z,34.03
2023-01-21T12:40:54.614Z,39.43
2023-01-21T12:43:25.591Z,39.90
2023-01-21T12:45:57.641Z,35.57
2023-01-21T12:48:46.537Z,37.93
2023-01-21T12:51:28.238Z,29.30
2023-01-21T12:54:19.891Z,34.20
2023-01-21T12:56:49.850Z,28.27
2023-01-21T12:59:31.659Z,34.57
2023-01-21T13:02:26.565Z,29.80
2023-01-21T13:05:05.984Z,32.87
2023-01-21T13:07:50.954Z,29.27
2023-01-21T13:10:37.570Z,23.87
2023-01-21T13:13:20.842Z,25.87
2023-01-21T13:15:52.631Z,27.03
2023-01-21T13:18:27.997Z,25.70
2023-01-21T13:21:00.480Z,26.50
2023-01-21T13:23:36.089Z,21.60
2023-01-21T13:26:11.656Z,25.80
2023-01-21T13:29:04.197Z,24.23
2023-01-21T13:31:54.022Z,20.47
2023-01-21T13:34:26.617Z,26.63
2023-01-21T13:36:53.329Z,22.40
2023-01-21T13:39:23.768Z,23.23
2023-01-21T13:42:09.241Z,24.73
2023-01-21T13:44:44.612Z,17.60
2023-01-21T13:47:51.480Z,21.63
2023-01-21T13:50:30.602Z,20.27
2023-01-21T13:53:32.294Z,23.03
2023-01-21T13:56:14.400Z,23.70
2023-01-21T13:58:58.104Z,21.77
2023-01-21T14:01:36.648Z,22.43
2023-01-21T14:04:40.327Z,24.00
2023-01-21T14:07:14.795Z,26.43
2023-01-21T14:09:47.522Z,24.53
2023-01-21T14:12:49.032Z,30.13
2023-01-21T14:15:37.328Z,26.23
2023-01-21T14:18:22.639Z,31.13
2023-01-21T14:21:07.505Z,36.90
2023-01-21T14:23:53.182Z,31.13
2023-01-21T14:26:45.111Z,22.80
2023-01-21T14:29:29.776Z,24.67
2023-01-21T14:32:23.152Z,26.23
2023-01-21T14:35:06.536Z,28.47
2023-01-21T14:37:44.154Z,30.33
2023-01-21T14:40:11.160Z,29.20
2023-01-21T14:42:50.070Z,35.50
2023-01-21T14:45:22.212Z,30.77
2023-01-21T14:47:54.213Z,25.60
2023-01-21T14:51:06.034Z,23.20
2023-01-21T14:53:57.051Z,26.50
2023-01-21T14:56:31.709Z,22.03
2023-01-21T14:59:04.865Z,21.70
2023-01-21T15:01:34.120Z,28.13
2023-01-21T15:04:07.482Z,24.73
2023-01-21T15:06:39.729Z,25.30
2023-01-21T15:09:07.457Z,31.83
2023-01-21T15:11:40.006Z,31.13
2023-01-21T15:14:12.652Z,24.20
2023-01-21T15:16:41.555Z,27.13
2023-01-21T15:19:08.322Z,27.87
2023-01-21T15:22:02.409Z,29.97
2023-01-21T15:24:31.636Z,27.57
2023-01-21T15:27:13.846Z,33.40
2023-01-21T15:29:54.096Z,29.93
2023-01-21T15:32:37.795Z,27.40
2023-01-21T15:35:18.721Z,29.60
2023-01-21T15:37:48.835Z,32.03
2023-01-21T15:40:26.957Z,24.93
2023-01-21T15:43:12.278Z,30.10
2023-01-21T15:46:26.913Z,24.27
2023-01-21T15:49:05.626Z,27.20
2023-01-21T15:52:02.160Z,28.37
2023-01-21T15:54:49.991Z,24.30
2023-01-21T15:57:46.440Z,26.63
2023-01-21T16:00:37.704Z,28.63
2023-01-21T16:06:10.631Z,33.97
2023-01-21T16:08:49.379Z,34.80
2023-01-21T16:11:16.331Z,37.97
2023-01-21T16:14:08.940Z,28.33
2023-01-21T16:16:42.761Z,27.63
2023-01-21T16:19:19.966Z,27.80
2023-01-21T16:21:51.076Z,29.40
2023-01-21T16:24:21.320Z,32.03
2023-01-21T16:26:48.039Z,27.87
2023-01-21T16:29:15.602Z,27.80
2023-01-21T16:31:59.429Z,30.70
2023-01-21T16:34:29.044Z,30.47
2023-01-21T16:36:55.906Z,34.50
2023-01-21T16:39:23.821Z,36.43
2023-01-21T16:42:01.970Z,33.23
2023-01-21T16:44:29.788Z,29.10
2023-01-21T16:46:56.733Z,35.67
2023-01-21T16:49:23.725Z,33.53
2023-01-21T16:51:57.257Z,34.50
2023-01-21T16:54:26.626Z,34.43
2023-01-21T16:56:53.435Z,32.63
2023-01-21T16:59:21.811Z,36.10
2023-01-21T17:01:50.121Z,35.50
2023-01-21T17:04:17.474Z,45.13
2023-01-21T17:06:45.985Z,33.77
2023-01-21T17:09:39.312Z,49.10
2023-01-21T17:12:10.427Z,40.23
2023-01-21T17:14:37.768Z,35.10
2023-01-21T17:17:07.966Z,39.60
2023-01-21T17:19:42.861Z,37.33
2023-01-21T17:22:19.919Z,38.90
2023-01-21T17:25:02.504Z,35.50
2023-01-21T17:27:30.188Z,34.47
2023-01-21T17:30:25.116Z,46.57
2023-01-21T17:33:00.657Z,37.27
2023-01-21T17:35:29.858Z,34.60
2023-01-21T17:37:58.992Z,38.60
2023-01-21T17:40:42.455Z,34.43
2023-01-21T17:43:24.510Z,38.67
2023-01-21T17:45:53.263Z,31.20
2023-01-21T17:48:28.726Z,33.53
2023-01-21T17:51:03.099Z,26.37
2023-01-21T17:53:31.023Z,30.13
2023-01-21T17:55:59.585Z,22.60
2023-01-21T17:58:32.362Z,30.30
2023-01-21T18:01:04.054Z,27.77
2023-01-21T18:03:30.800Z,24.57
2023-01-21T18:05:57.976Z,25.37
2023-01-21T18:08:25.082Z,23.37
2023-01-21T18:10:51.826Z,23.37
2023-01-21T18:13:20.559Z,19.80
2023-01-21T18:15:51.918Z,19.47
2023-01-21T18:18:24.163Z,18.00
2023-01-21T18:20:51.112Z,16.07
2023-01-21T18:23:18.344Z,17.90
2023-01-21T18:25:52.201Z,16.10
2023-01-21T18:28:22.446Z,16.27
2023-01-21T18:30:52.132Z,20.27
2023-01-21T18:33:19.469Z,15.20
2023-01-21T18:35:48.480Z,13.40
2023-01-21T18:38:27.397Z,18.03
2023-01-21T18:40:57.968Z,15.23
2023-01-21T18:43:27.882Z,16.13
2023-01-21T18:45:54.928Z,16.07
2023-01-21T18:48:27.573Z,12.60
2023-01-21T18:50:54.832Z,18.83
2023-01-21T18:53:21.748Z,16.03
2023-01-21T18:55:51.011Z,15.47
2023-01-21T18:58:17.873Z,16.17
2023-01-21T19:00:44.639Z,21.30
2023-01-21T19:03:15.612Z,18.70
2023-01-21T19:05:45.708Z,15.10
2023-01-21T19:08:16.686Z,16.13
2023-01-21T19:10:43.455Z,16.93
2023-01-21T19:13:11.811Z,18.50
2023-01-21T19:15:38.984Z,18.30
2023-01-21T19:18:11.592Z,20.07
2023-01-21T19:20:41.870Z,19.40
2023-01-21T19:23:17.531Z,19.10
2023-01-21T19:25:53.742Z,22.60
2023-01-21T19:28:21.549Z,23.50
2023-01-21T19:30:49.864Z,23.63
2023-01-21T19:33:16.814Z,25.23
2023-01-21T19:35:45.670Z,27.60
2023-01-21T19:38:18.806Z,25.50
2023-01-21T19:40:46.779Z,26.43
2023-01-21T19:43:22.663Z,26.90
2023-01-21T19:45:51.567Z,28.47
2023-01-21T19:48:20.804Z,25.03
2023-01-21T19:50:47.713Z,27.50
2023-01-21T19:53:16.533Z,24.70
2023-01-21T19:55:44.731Z,26.17
2023-01-21T19:58:19.538Z,30.90
2023-01-21T20:00:51.698Z,27.57
2023-01-21T20:03:20.513Z,28.87
2023-01-21T20:05:49.966Z,29.60
2023-01-21T20:08:20.666Z,30.13
2023-01-21T20:10:47.492Z,31.87
2023-01-21T20:13:15.732Z,35.87
2023-01-21T20:15:44.624Z,31.67
2023-01-21T20:18:24.590Z,31.20
2023-01-21T20:20:52.964Z,37.53
2023-01-21T20:23:21.264Z,35.80
2023-01-21T20:25:55.039Z,33.40
2023-01-21T20:28:25.265Z,35.93
2023-01-21T20:30:53.767Z,28.93
2023-01-21T20:33:23.741Z,35.80
2023-01-21T20:35:53.871Z,36.23
2023-01-21T20:38:30.231Z,34.10
2023-01-21T20:40:58.023Z,37.70
2023-01-21T20:43:25.024Z,36.57
2023-01-21T20:45:52.559Z,36.00
2023-01-21T20:48:26.921Z,43.67
2023-01-21T20:50:54.055Z,36.67
2023-01-21T20:53:21.045Z,51.47
2023-01-21T20:55:50.687Z,38.40
2023-01-21T20:58:19.474Z,39.07
2023-01-21T21:00:47.004Z,46.73
2023-01-21T21:03:16.650Z,42.40
2023-01-21T21:05:44.137Z,41.97
2023-01-21T21:08:19.450Z,38.00
2023-01-21T21:10:47.000Z,38.17
2023-01-21T21:13:14.641Z,37.83
2023-01-21T21:15:43.141Z,39.70
2023-01-21T21:18:14.776Z,42.73
2023-01-21T21:20:42.103Z,39.07
2023-01-21T21:23:13.956Z,38.40
2023-01-21T21:25:44.475Z,42.37
2023-01-21T21:28:17.322Z,39.27
2023-01-21T21:30:44.481Z,44.53
2023-01-21T21:33:18.722Z,45.50
2023-01-21T21:35:46.915Z,40.87
2023-01-21T21:38:21.853Z,40.10
2023-01-21T21:40:53.031Z,40.43
2023-01-21T21:43:35.698Z,46.20
2023-01-21T21:46:28.548Z,39.90
2023-01-21T21:48:55.270Z,43.40
2023-01-21T21:51:22.737Z,38.37
2023-01-21T21:53:49.955Z,45.00
2023-01-21T21:56:19.437Z,39.87
2023-01-21T21:58:47.223Z,43.20
2023-01-21T22:01:17.070Z,37.40
2023-01-21T22:03:44.265Z,39.30
2023-01-21T22:06:12.712Z,38.20
2023-01-21T22:08:41.452Z,38.80
2023-01-21T22:11:16.540Z,33.97
2023-01-21T22:13:44.673Z,42.30
2023-01-21T22:16:14.322Z,39.07
2023-01-21T22:18:41.942Z,39.30
2023-01-21T22:21:16.402Z,42.03
2023-01-21T22:23:43.713Z,39.43
2023-01-21T22:26:13.285Z,38.30
2023-01-21T22:28:41.053Z,45.77
2023-01-21T22:31:11.831Z,33.60
2023-01-21T22:33:39.396Z,31.47
2023-01-21T22:36:11.760Z,43.20
2023-01-21T22:38:40.664Z,38.60
2023-01-21T22:41:09.244Z,34.83
2023-01-21T22:43:38.464Z,43.27
2023-01-21T22:46:05.538Z,38.63
2023-01-21T22:48:32.453Z,42.57
2023-01-21T22:51:00.372Z,40.57
2023-01-21T22:53:28.000Z,40.53
2023-01-21T22:55:56.542Z,40.73
2023-01-21T22:58:24.734Z,43.73
2023-01-21T23:00:52.316Z,38.27
2023-01-21T23:03:19.999Z,38.57
2023-01-21T23:05:47.314Z,40.47
2023-01-21T23:08:15.242Z,34.23
2023-01-21T23:10:42.722Z,32.30
2023-01-21T23:13:10.837Z,38.27
2023-01-21T23:15:44.851Z,39.53
2023-01-21T23:18:13.897Z,34.50
2023-01-21T23:20:42.156Z,32.50
2023-01-21T23:23:10.183Z,34.87
2023-01-21T23:25:44.959Z,35.03
2023-01-21T23:28:13.017Z,44.97
2023-01-21T23:30:39.762Z,37.10
2023-01-21T23:33:06.868Z,44.30
2023-01-21T23:35:34.565Z,38.70
2023-01-21T23:38:02.874Z,43.40
2023-01-21T23:40:29.977Z,45.20
2023-01-21T23:42:56.915Z,40.53
2023-01-21T23:45:23.694Z,46.60
2023-01-21T23:47:50.406Z,37.43
2023-01-21T23:50:17.400Z,36.27
2023-01-21T23:52:44.362Z,38.87
2023-01-21T23:55:11.392Z,36.13
2023-01-21T23:57:38.153Z,33.90
